Time;durP1;ratioP1;P1;durP2;ratioP2;P2;SDS_P1;SDS_P2;PMS_P1;PMS_P2;Temp;Humidity;BMP_temperature;BMP_pressure;BME280_temperature;BME280_humidity;BME280_pressure;Samples;Min_cycle;Max_cycle;Signal;HPM_P1;HPM_P2
2022/03/22 00:02:23;;;;;;;;;;;4.20;99.90;;;;;;5096070;28;19924;-68
2022/03/22 00:04:50;;;;;;;;;;;4.30;99.90;;;;;;5089787;28;20011;-70
2022/03/22 00:07:17;;;;;;;;;;;4.20;99.90;;;;;;5103291;28;20075;-68
2022/03/22 00:09:44;;;;;;;;;;;4.20;99.90;;;;;;5087990;28;19951;-68
2022/03/22 00:12:10;;;;;;;;;;;4.10;99.90;;;;;;5092572;28;19931;-68
2022/03/22 00:14:37;;;;;;;;;;;4.00;99.90;;;;;;5096659;28;20001;-68
2022/03/22 00:17:24;;;;;;;;;;;4.00;99.90;;;;;;5099677;28;20347;-68
2022/03/22 00:19:56;;;;;;;;;;;4.00;99.90;;;;;;5099475;28;19927;-68
2022/03/22 00:22:24;;;;;;;;;;;4.00;99.90;;;;;;5100040;28;19957;-68
2022/03/22 00:24:51;;;;;;;;;;;4.00;99.90;;;;;;5092244;28;19924;-68
2022/03/22 00:27:18;;;;;;;;;;;4.00;99.90;;;;;;5092072;28;19924;-68
2022/03/22 00:29:44;;;;;;;;;;;4.00;99.90;;;;;;5092673;28;20011;-68
2022/03/22 00:32:14;;;;;;;;;;;4.00;99.90;;;;;;5094623;28;20795;-68
2022/03/22 00:34:44;;;;;;;;;;;4.00;99.90;;;;;;5092303;28;19931;-68
2022/03/22 00:37:14;;;;;;;;;;;3.90;99.90;;;;;;5092232;28;19924;-68
2022/03/22 00:39:42;;;;;;;;;;;3.90;99.90;;;;;;5091566;28;20003;-68
2022/03/22 00:42:10;;;;;;;;;;;3.80;99.90;;;;;;5099310;28;19927;-67
2022/03/22 00:44:38;;;;;;;;;;;3.80;99.90;;;;;;5082669;28;19928;-68
2022/03/22 00:47:08;;;;;;;;;;;3.60;99.90;;;;;;5091560;28;19931;-67
2022/03/22 00:49:36;;;;;;;;;;;3.50;99.90;;;;;;5092063;28;20011;-67
2022/03/22 00:52:04;;;;;;;;;;;3.40;99.90;;;;;;5101122;28;19965;-68
2022/03/22 00:54:33;;;;;;;;;;;3.40;99.90;;;;;;5109969;28;20031;-68
2022/03/22 00:56:59;;;;;;;;;;;3.40;99.90;;;;;;5106326;28;20010;-69
2022/03/22 01:02:11;;;;;;;;;;;3.40;99.90;;;;;;5110687;28;19966;-69
2022/03/22 01:04:39;;;;;;;;;;;3.50;99.90;;;;;;5108637;28;19924;-69
2022/03/22 01:07:05;;;;;;;;;;;3.60;99.90;;;;;;5105122;28;19946;-69
2022/03/22 01:09:32;;;;;;;;;;;3.60;99.90;;;;;;5091375;28;19973;-68
2022/03/22 01:11:59;;;;;;;;;;;3.60;99.90;;;;;;5106496;28;20016;-69
2022/03/22 01:14:28;;;;;;;;;;;3.50;99.90;;;;;;5100673;28;19919;-68
2022/03/22 01:16:58;;;;;;;;;;;3.50;99.90;;;;;;5096091;28;19920;-69
2022/03/22 01:19:28;;;;;;;;;;;3.50;99.90;;;;;;5099514;28;19972;-69
2022/03/22 01:21:55;;;;;;;;;;;3.50;99.90;;;;;;5110567;28;19920;-69
2022/03/22 01:24:25;;;;;;;;;;;3.50;99.90;;;;;;5100238;28;20308;-68
2022/03/22 01:26:52;;;;;;;;;;;3.50;99.90;;;;;;5075076;28;19920;-69
2022/03/22 01:29:19;;;;;;;;;;;3.50;99.90;;;;;;5101070;28;19923;-68
2022/03/22 01:31:46;;;;;;;;;;;3.50;99.90;;;;;;5096384;28;19920;-68
2022/03/22 01:34:12;;;;;;;;;;;3.40;99.90;;;;;;5107041;28;19951;-68
2022/03/22 01:36:39;;;;;;;;;;;3.40;99.90;;;;;;5104281;28;20292;-68
2022/03/22 01:39:06;;;;;;;;;;;3.40;99.90;;;;;;5090679;28;19981;-68
2022/03/22 01:41:33;;;;;;;;;;;3.40;99.90;;;;;;5098536;28;19942;-68
2022/03/22 01:44:00;;;;;;;;;;;3.40;99.90;;;;;;5091160;28;19927;-68
2022/03/22 01:46:28;;;;;;;;;;;3.40;99.90;;;;;;5099060;28;19924;-68
2022/03/22 01:48:54;;;;;;;;;;;3.30;99.90;;;;;;5092357;28;19923;-67
2022/03/22 01:51:22;;;;;;;;;;;3.30;99.90;;;;;;5103769;28;19942;-68
2022/03/22 01:53:49;;;;;;;;;;;3.30;99.90;;;;;;5089036;28;19972;-68
2022/03/22 01:56:16;;;;;;;;;;;3.20;99.90;;;;;;5098792;28;19927;-68
2022/03/22 01:58:43;;;;;;;;;;;3.20;99.90;;;;;;5090254;28;20011;-68
2022/03/22 02:06:41;;;;;;;;;;;3.20;99.90;;;;;;5108202;28;19966;-68
2022/03/22 02:09:08;;;;;;;;;;;3.20;99.90;;;;;;5091097;28;19920;-68
2022/03/22 02:11:38;;;;;;;;;;;3.10;99.90;;;;;;5101529;28;19919;-68
2022/03/22 02:14:05;;;;;;;;;;;3.10;99.90;;;;;;5096479;28;20534;-68
2022/03/22 02:16:32;;;;;;;;;;;3.10;99.90;;;;;;5090811;28;20512;-68
2022/03/22 02:18:59;;;;;;;;;;;3.00;99.90;;;;;;5099666;28;19959;-68
2022/03/22 02:21:30;;;;;;;;;;;2.90;99.90;;;;;;5095934;28;19926;-68
2022/03/22 02:23:57;;;;;;;;;;;2.80;99.90;;;;;;5094044;28;19970;-69
2022/03/22 02:26:25;;;;;;;;;;;2.70;99.90;;;;;;5105072;28;19919;-69
2022/03/22 02:28:54;;;;;;;;;;;2.60;99.90;;;;;;5105768;28;19989;-69
2022/03/22 02:31:25;;;;;;;;;;;2.50;99.90;;;;;;5098122;28;20562;-69
2022/03/22 02:33:52;;;;;;;;;;;2.40;99.90;;;;;;5098190;28;20362;-69
2022/03/22 02:36:19;;;;;;;;;;;2.30;99.90;;;;;;5090965;28;20306;-69
2022/03/22 02:38:46;;;;;;;;;;;2.30;99.90;;;;;;5108195;28;19919;-69
2022/03/22 02:41:22;;;;;;;;;;;2.20;99.90;;;;;;5093824;28;19930;-68
2022/03/22 02:43:52;;;;;;;;;;;2.20;99.90;;;;;;5094133;28;19920;-69
2022/03/22 02:46:19;;;;;;;;;;;2.10;99.90;;;;;;5102323;28;19920;-69
2022/03/22 02:48:46;;;;;;;;;;;2.10;99.90;;;;;;5093908;28;20447;-69
2022/03/22 02:51:16;;;;;;;;;;;2.10;99.90;;;;;;5094218;28;19920;-69
2022/03/22 02:53:45;;;;;;;;;;;2.10;99.90;;;;;;5094893;28;20379;-69
2022/03/22 02:56:12;;;;;;;;;;;2.10;99.90;;;;;;5107723;28;19926;-68
2022/03/22 02:58:39;;;;;;;;;;;2.10;99.90;;;;;;5093649;28;19924;-69
2022/03/22 03:01:06;;;;;;;;;;;2.10;99.90;;;;;;5098826;28;19920;-69
2022/03/22 03:03:33;;;;;;;;;;;2.10;99.90;;;;;;5097291;28;20028;-68
2022/03/22 03:06:00;;;;;;;;;;;2.10;99.90;;;;;;5093488;28;19927;-69
2022/03/22 03:08:27;;;;;;;;;;;2.10;99.90;;;;;;5075210;28;19955;-68
2022/03/22 03:10:56;;;;;;;;;;;2.20;99.90;;;;;;5107623;28;19923;-69
2022/03/22 03:13:22;;;;;;;;;;;2.20;99.90;;;;;;5098370;28;20006;-69
2022/03/22 03:15:50;;;;;;;;;;;2.20;99.90;;;;;;5111460;28;19926;-69
2022/03/22 03:18:18;;;;;;;;;;;2.30;99.90;;;;;;5097955;28;19924;-69
2022/03/22 03:20:47;;;;;;;;;;;2.30;99.90;;;;;;5094670;28;19961;-69
2022/03/22 03:23:14;;;;;;;;;;;2.30;99.90;;;;;;5108270;28;19919;-69
2022/03/22 03:25:41;;;;;;;;;;;2.30;99.90;;;;;;5093818;28;19920;-69
2022/03/22 03:28:09;;;;;;;;;;;2.20;99.90;;;;;;5093201;28;20003;-69
2022/03/22 03:30:36;;;;;;;;;;;2.20;99.90;;;;;;5107687;28;20000;-69
2022/03/22 03:33:03;;;;;;;;;;;2.20;99.90;;;;;;5081500;28;19920;-69
2022/03/22 03:35:30;;;;;;;;;;;2.20;99.90;;;;;;5112725;28;19920;-69
2022/03/22 03:37:59;;;;;;;;;;;2.20;99.90;;;;;;5112116;28;19952;-69
2022/03/22 03:41:53;;;;;;;;;;;2.10;99.90;;;;;;5107447;28;20450;-69
2022/03/22 03:43:15;;;;;;;;;;;2.20;99.90;;;;;;5101156;28;20351;-69
2022/03/22 03:48:27;;;;;;;;;;;2.40;99.90;;;;;;5091461;28;19924;-68
2022/03/22 03:50:53;;;;;;;;;;;2.40;99.90;;;;;;5079075;28;19920;-67
2022/03/22 03:53:20;;;;;;;;;;;2.30;99.90;;;;;;5093025;28;20002;-67
2022/03/22 03:55:49;;;;;;;;;;;2.30;99.90;;;;;;5092959;28;20383;-67
2022/03/22 03:58:16;;;;;;;;;;;2.30;99.90;;;;;;5111147;28;19924;-68
2022/03/22 04:00:42;;;;;;;;;;;2.30;99.90;;;;;;5110632;28;19920;-68
2022/03/22 04:03:09;;;;;;;;;;;2.30;99.90;;;;;;5107190;28;19919;-69
2022/03/22 04:05:36;;;;;;;;;;;2.30;99.90;;;;;;5092332;28;19931;-68
2022/03/22 04:08:11;;;;;;;;;;;2.30;99.90;;;;;;5092878;28;19970;-68
2022/03/22 04:10:37;;;;;;;;;;;2.20;99.90;;;;;;5092482;28;20389;-69
2022/03/22 04:13:04;;;;;;;;;;;2.20;99.90;;;;;;5101177;28;19947;-68
2022/03/22 04:15:33;;;;;;;;;;;2.10;99.90;;;;;;5103863;28;19920;-67
2022/03/22 04:18:00;;;;;;;;;;;2.10;99.90;;;;;;5078593;28;19927;-68
2022/03/22 04:20:27;;;;;;;;;;;2.10;99.90;;;;;;5093117;28;19994;-68
2022/03/22 04:22:55;;;;;;;;;;;2.00;99.90;;;;;;5092601;28;20459;-68
2022/03/22 04:25:21;;;;;;;;;;;1.90;99.90;;;;;;5092773;28;19981;-68
2022/03/22 04:33:18;;;;;;;;;;;1.60;99.90;;;;;;5092516;28;19924;-68
2022/03/22 04:35:45;;;;;;;;;;;1.60;99.90;;;;;;5111327;28;20006;-69
2022/03/22 04:38:12;;;;;;;;;;;1.60;99.90;;;;;;5110269;28;19972;-68
2022/03/22 04:40:45;;;;;;;;;;;1.50;99.90;;;;;;5099808;28;19998;-69
2022/03/22 04:43:19;;;;;;;;;;;1.40;99.90;;;;;;5090699;28;19924;-69
2022/03/22 04:45:46;;;;;;;;;;;1.40;99.90;;;;;;5103610;28;19926;-69
2022/03/22 04:48:15;;;;;;;;;;;1.30;99.90;;;;;;5095340;28;19951;-69
2022/03/22 04:50:41;;;;;;;;;;;1.40;99.90;;;;;;5092144;28;20010;-69
2022/03/22 04:58:38;;;;;;;;;;;1.50;99.90;;;;;;5091349;28;19924;-68
2022/03/22 05:01:05;;;;;;;;;;;1.50;99.90;;;;;;5091172;28;19924;-68
2022/03/22 05:03:32;;;;;;;;;;;1.60;99.90;;;;;;5107696;28;20435;-69
2022/03/22 05:08:44;;;;;;;;;;;1.50;99.90;;;;;;5094393;28;20379;-68
2022/03/22 05:11:17;;;;;;;;;;;1.50;99.90;;;;;;5091652;28;20356;-68
2022/03/22 05:13:56;;;;;;;;;;;1.50;99.90;;;;;;5093450;28;19920;-68
2022/03/22 05:16:24;;;;;;;;;;;1.60;99.90;;;;;;5102434;28;20440;-68
2022/03/22 05:18:51;;;;;;;;;;;1.70;99.90;;;;;;5091179;28;19920;-68
2022/03/22 05:21:18;;;;;;;;;;;1.80;99.90;;;;;;5092064;28;20366;-68
2022/03/22 05:23:45;;;;;;;;;;;1.90;99.90;;;;;;5098173;28;19923;-68
2022/03/22 05:26:12;;;;;;;;;;;1.90;99.90;;;;;;5098226;28;20323;-68
2022/03/22 05:28:39;;;;;;;;;;;1.90;99.90;;;;;;5107830;28;19927;-68
2022/03/22 05:31:08;;;;;;;;;;;1.90;99.90;;;;;;5110604;28;20014;-68
2022/03/22 05:33:36;;;;;;;;;;;1.90;99.90;;;;;;5108672;28;19980;-68
2022/03/22 05:36:09;;;;;;;;;;;1.90;99.90;;;;;;5096805;28;19920;-68
2022/03/22 05:38:36;;;;;;;;;;;2.00;99.90;;;;;;5109779;28;19920;-68
2022/03/22 05:41:03;;;;;;;;;;;2.00;99.90;;;;;;5109751;28;20056;-69
2022/03/22 05:43:30;;;;;;;;;;;2.00;99.90;;;;;;5099161;28;20014;-68
2022/03/22 05:45:57;;;;;;;;;;;2.10;99.90;;;;;;5092195;28;19955;-69
2022/03/22 05:48:24;;;;;;;;;;;2.10;99.90;;;;;;5081982;28;19920;-69
2022/03/22 05:50:50;;;;;;;;;;;2.00;99.90;;;;;;5096992;28;20343;-69
2022/03/22 05:53:17;;;;;;;;;;;2.00;99.90;;;;;;5085741;28;20382;-69
2022/03/22 05:55:44;;;;;;;;;;;1.90;99.90;;;;;;5091177;28;20015;-69
2022/03/22 05:58:13;;;;;;;;;;;1.90;99.90;;;;;;5103465;28;19927;-69
2022/03/22 06:00:39;;;;;;;;;;;1.80;99.90;;;;;;5084833;28;19924;-69
2022/03/22 06:03:07;;;;;;;;;;;1.80;99.90;;;;;;5107032;28;20499;-69
2022/03/22 06:05:34;;;;;;;;;;;1.70;99.90;;;;;;5096003;28;19942;-69
2022/03/22 06:08:00;;;;;;;;;;;1.70;99.90;;;;;;5100280;28;19973;-69
2022/03/22 06:10:28;;;;;;;;;;;1.70;99.90;;;;;;5102440;28;19927;-69
2022/03/22 06:12:55;;;;;;;;;;;1.80;99.90;;;;;;5106084;28;20608;-70
2022/03/22 06:15:23;;;;;;;;;;;1.90;99.90;;;;;;5103131;28;19991;-70
2022/03/22 06:17:55;;;;;;;;;;;2.10;99.90;;;;;;5105952;28;19959;-69
2022/03/22 06:20:23;;;;;;;;;;;2.20;99.90;;;;;;5102020;28;19984;-69
2022/03/22 06:22:53;;;;;;;;;;;2.40;99.90;;;;;;5104646;28;19924;-69
2022/03/22 06:25:20;;;;;;;;;;;2.60;99.90;;;;;;5104437;28;19926;-69
2022/03/22 06:27:49;;;;;;;;;;;2.80;99.90;;;;;;5094513;28;19947;-69
2022/03/22 06:30:17;;;;;;;;;;;3.20;99.90;;;;;;5094861;28;20011;-69
2022/03/22 06:32:48;;;;;;;;;;;4.00;99.90;;;;;;5095031;28;19924;-69
2022/03/22 06:35:22;;;;;;;;;;;4.90;99.90;;;;;;5102424;28;19926;-69
2022/03/22 06:37:49;;;;;;;;;;;5.80;99.90;;;;;;5093901;28;19920;-69
2022/03/22 06:40:17;;;;;;;;;;;6.50;99.90;;;;;;5094526;28;19920;-69
2022/03/22 06:42:44;;;;;;;;;;;7.10;99.90;;;;;;5093680;28;19947;-68
2022/03/22 06:45:13;;;;;;;;;;;7.60;99.90;;;;;;5097800;28;19926;-69
2022/03/22 06:47:40;;;;;;;;;;;8.00;99.90;;;;;;5104708;28;19970;-69
2022/03/22 06:50:10;;;;;;;;;;;8.30;99.90;;;;;;5111713;28;19934;-69
2022/03/22 06:52:40;;;;;;;;;;;8.90;99.90;;;;;;5106562;28;19924;-69
2022/03/22 06:55:08;;;;;;;;;;;9.20;99.90;;;;;;5103619;28;19988;-68
2022/03/22 06:57:36;;;;;;;;;;;9.30;99.50;;;;;;5098753;28;19973;-68
2022/03/22 07:00:08;;;;;;;;;;;9.30;99.00;;;;;;5095637;28;19980;-69
2022/03/22 07:02:35;;;;;;;;;;;9.50;99.00;;;;;;5107287;28;19955;-68
2022/03/22 07:05:03;;;;;;;;;;;;;;;;;;5094020;28;20433;-68
2022/03/22 07:07:29;;;;;;;;;;;9.80;97.90;;;;;;5101503;28;19946;-69
2022/03/22 07:09:56;;;;;;;;;;;10.00;97.20;;;;;;5094430;28;19966;-68
2022/03/22 07:12:25;;;;;;;;;;;10.10;96.80;;;;;;5094420;28;20036;-68
2022/03/22 07:14:52;;;;;;;;;;;10.00;96.80;;;;;;5093359;28;19934;-68
2022/03/22 07:17:19;;;;;;;;;;;10.00;96.90;;;;;;5105302;28;20236;-68
2022/03/22 07:19:47;;;;;;;;;;;10.20;96.40;;;;;;5084435;28;20007;-68
2022/03/22 07:22:16;;;;;;;;;;;10.40;96.20;;;;;;5093558;28;19989;-69
2022/03/22 07:24:43;;;;;;;;;;;10.60;96.40;;;;;;5093088;28;20025;-69
2022/03/22 07:27:10;;;;;;;;;;;11.10;96.50;;;;;;5095775;28;19928;-69
2022/03/22 07:29:36;;;;;;;;;;;11.30;95.40;;;;;;5112101;28;19926;-69
2022/03/22 07:32:03;;;;;;;;;;;11.80;95.70;;;;;;5101336;28;19988;-67
2022/03/22 07:34:31;;;;;;;;;;;12.10;94.90;;;;;;5093350;28;19926;-67
2022/03/22 07:36:58;;;;;;;;;;;12.40;94.50;;;;;;5077017;28;19920;-67
2022/03/22 07:39:25;;;;;;;;;;;12.60;94.20;;;;;;5093648;28;19963;-67
2022/03/22 07:41:51;;;;;;;;;;;12.60;94.30;;;;;;5096521;28;19998;-67
2022/03/22 07:44:18;;;;;;;;;;;12.80;94.00;;;;;;5109514;28;19963;-67
2022/03/22 07:46:48;;;;;;;;;;;12.90;93.30;;;;;;5093223;28;20030;-67
2022/03/22 07:54:50;;;;;;;;;;;12.70;92.80;;;;;;5104538;28;19954;-67
2022/03/22 07:57:22;;;;;;;;;;;12.60;93.60;;;;;;5095903;28;19924;-68
2022/03/22 07:59:49;;;;;;;;;;;12.70;92.40;;;;;;5092446;28;20794;-68
2022/03/22 08:02:22;;;;;;;;;;;12.60;92.60;;;;;;5092368;28;20400;-68
2022/03/22 08:04:49;;;;;;;;;;;12.50;92.00;;;;;;5084202;28;19927;-68
2022/03/22 08:07:16;;;;;;;;;;;12.30;92.10;;;;;;5079945;28;19931;-67
2022/03/22 08:09:45;;;;;;;;;;;12.00;92.10;;;;;;5093059;28;19920;-67
2022/03/22 08:12:14;;;;;;;;;;;11.60;92.30;;;;;;5092297;28;19931;-68
2022/03/22 08:14:44;;;;;;;;;;;11.70;92.40;;;;;;5101630;28;20486;-67
2022/03/22 08:17:11;;;;;;;;;;;11.80;92.00;;;;;;5099352;28;20378;-68
2022/03/22 08:19:37;;;;;;;;;;;11.90;91.90;;;;;;5098214;28;19928;-67
2022/03/22 08:22:05;;;;;;;;;;;12.10;92.50;;;;;;5095151;28;19934;-68
2022/03/22 08:24:32;;;;;;;;;;;12.10;91.80;;;;;;5093348;28;20414;-67
2022/03/22 08:27:02;;;;;;;;;;;12.20;92.00;;;;;;5093653;28;20008;-67
2022/03/22 08:29:29;;;;;;;;;;;12.20;91.70;;;;;;5109295;28;19920;-67
2022/03/22 08:31:56;;;;;;;;;;;12.50;91.40;;;;;;5111226;28;20324;-68
2022/03/22 08:34:22;;;;;;;;;;;12.50;91.30;;;;;;5101303;28;19920;-67
2022/03/22 08:36:49;;;;;;;;;;;12.10;91.30;;;;;;5106623;28;20581;-67
2022/03/22 08:39:16;;;;;;;;;;;11.80;91.20;;;;;;5101356;28;20010;-68
2022/03/22 08:41:44;;;;;;;;;;;11.70;91.70;;;;;;5099916;28;20211;-68
2022/03/22 08:44:12;;;;;;;;;;;12.00;91.90;;;;;;5095890;28;19934;-68
2022/03/22 08:46:38;;;;;;;;;;;12.00;92.10;;;;;;5087690;28;19974;-68
2022/03/22 08:49:05;;;;;;;;;;;12.50;92.00;;;;;;5109001;28;19932;-68
2022/03/22 08:51:34;;;;;;;;;;;12.80;91.10;;;;;;5093888;28;20437;-68
2022/03/22 08:54:00;;;;;;;;;;;12.80;91.60;;;;;;5093969;28;19924;-68
2022/03/22 08:56:27;;;;;;;;;;;13.20;91.20;;;;;;5091932;28;19970;-68
2022/03/22 08:58:54;;;;;;;;;;;13.10;90.40;;;;;;5091741;28;19924;-68
2022/03/22 09:01:39;;;;;;;;;;;13.00;90.80;;;;;;5095873;28;20366;-68
2022/03/22 09:06:51;;;;;;;;;;;13.10;90.50;;;;;;5105941;28;19974;-68
2022/03/22 09:09:18;;;;;;;;;;;13.70;90.50;;;;;;5089480;28;19970;-68
2022/03/22 09:11:45;;;;;;;;;;;13.80;90.60;;;;;;5091921;28;20555;-68
2022/03/22 09:14:14;;;;;;;;;;;13.90;90.20;;;;;;5094429;28;20015;-68
2022/03/22 09:16:41;;;;;;;;;;;14.10;90.40;;;;;;5105122;28;19927;-68
2022/03/22 09:19:08;;;;;;;;;;;14.20;89.80;;;;;;5091904;28;19924;-68
2022/03/22 09:21:35;;;;;;;;;;;14.80;90.00;;;;;;5103985;28;19945;-67
2022/03/22 09:24:05;;;;;;;;;;;14.80;88.80;;;;;;5102506;28;20501;-67
2022/03/22 09:26:31;;;;;;;;;;;15.50;89.00;;;;;;5099634;28;19923;-66
2022/03/22 09:28:58;;;;;;;;;;;15.70;90.20;;;;;;5088660;28;19959;-67
2022/03/22 09:31:25;;;;;;;;;;;15.90;88.30;;;;;;5091248;28;20409;-66
2022/03/22 09:33:52;;;;;;;;;;;16.00;84.60;;;;;;5091100;28;19928;-66
2022/03/22 09:36:19;;;;;;;;;;;15.90;84.00;;;;;;5091351;28;19963;-66
2022/03/22 09:38:46;;;;;;;;;;;15.80;82.70;;;;;;5090057;28;19928;-67
2022/03/22 09:41:13;;;;;;;;;;;16.00;83.80;;;;;;5097246;28;19924;-67
2022/03/22 09:43:44;;;;;;;;;;;15.80;84.00;;;;;;5093449;28;19928;-68
2022/03/22 09:46:13;;;;;;;;;;;16.10;84.80;;;;;;5099061;28;20300;-67
2022/03/22 09:48:40;;;;;;;;;;;16.30;84.30;;;;;;5090711;28;19928;-66
2022/03/22 09:53:52;;;;;;;;;;;16.10;84.10;;;;;;5090631;28;19985;-67
2022/03/22 09:56:20;;;;;;;;;;;15.90;84.20;;;;;;5090767;28;20003;-66
2022/03/22 09:58:48;;;;;;;;;;;15.90;85.00;;;;;;5096501;28;19924;-67
2022/03/22 10:01:21;;;;;;;;;;;15.90;84.60;;;;;;5107750;28;20310;-67
2022/03/22 10:04:03;;;;;;;;;;;15.90;84.20;;;;;;5090700;28;19924;-67
2022/03/22 10:06:33;;;;;;;;;;;16.00;85.50;;;;;;5105166;28;20389;-66
2022/03/22 10:09:01;;;;;;;;;;;16.50;84.70;;;;;;5090035;28;19967;-67
2022/03/22 10:11:38;;;;;;;;;;;16.90;83.90;;;;;;5098726;28;20441;-66
2022/03/22 10:14:08;;;;;;;;;;;17.00;82.90;;;;;;5095808;28;19924;-66
2022/03/22 10:16:45;;;;;;;;;;;17.10;83.40;;;;;;5108338;28;19923;-65
2022/03/22 10:19:25;;;;;;;;;;;17.00;84.70;;;;;;5100088;28;19924;-67
2022/03/22 10:21:53;;;;;;;;;;;16.80;85.00;;;;;;5097628;28;20030;-66
2022/03/22 10:24:26;;;;;;;;;;;16.70;82.80;;;;;;5097875;28;20717;-66
2022/03/22 10:26:53;;;;;;;;;;;17.20;84.00;;;;;;5090129;28;21094;-66
2022/03/22 10:29:20;;;;;;;;;;;17.70;82.80;;;;;;5094503;28;19935;-66
2022/03/22 10:31:46;;;;;;;;;;;17.20;83.90;;;;;;5094494;28;20011;-67
2022/03/22 10:34:15;;;;;;;;;;;17.60;83.80;;;;;;5098473;28;19924;-65
2022/03/22 10:36:42;;;;;;;;;;;18.20;84.80;;;;;;5090518;28;20343;-66
2022/03/22 10:39:10;;;;;;;;;;;18.50;82.20;;;;;;5089397;28;19924;-66
2022/03/22 10:41:43;;;;;;;;;;;18.20;82.00;;;;;;5104691;28;20409;-66
2022/03/22 10:44:13;;;;;;;;;;;18.10;81.10;;;;;;5108822;28;19923;-67
2022/03/22 10:46:43;;;;;;;;;;;17.70;82.20;;;;;;5094892;28;20022;-67
2022/03/22 10:49:11;;;;;;;;;;;18.10;81.50;;;;;;5089437;28;19928;-66
2022/03/22 10:51:44;;;;;;;;;;;17.50;81.50;;;;;;5081840;28;19938;-66
2022/03/22 10:54:12;;;;;;;;;;;17.30;81.60;;;;;;5096384;28;19959;-67
2022/03/22 10:56:44;;;;;;;;;;;17.00;81.90;;;;;;5098100;28;19971;-67
2022/03/22 10:59:15;;;;;;;;;;;16.60;82.20;;;;;;5096789;28;20011;-66
2022/03/22 11:01:43;;;;;;;;;;;16.80;83.80;;;;;;5104227;28;19930;-67
2022/03/22 11:04:10;;;;;;;;;;;16.90;81.70;;;;;;5105113;28;19953;-67
2022/03/22 11:06:38;;;;;;;;;;;17.30;82.80;;;;;;5097682;28;20007;-67
2022/03/22 11:09:08;;;;;;;;;;;17.80;83.00;;;;;;5075788;28;19924;-67
2022/03/22 11:11:36;;;;;;;;;;;18.10;82.10;;;;;;5097687;28;20052;-66
2022/03/22 11:14:03;;;;;;;;;;;18.30;81.70;;;;;;5112267;28;19955;-66
2022/03/22 11:16:33;;;;;;;;;;;17.90;81.10;;;;;;5093131;28;20015;-67
2022/03/22 11:19:02;;;;;;;;;;;18.10;81.60;;;;;;5106727;28;20034;-66
2022/03/22 11:21:29;;;;;;;;;;;17.70;81.20;;;;;;5091823;28;19924;-66
2022/03/22 11:24:07;;;;;;;;;;;17.20;81.50;;;;;;5095725;28;20020;-66
2022/03/22 11:26:41;;;;;;;;;;;17.40;81.70;;;;;;5111654;28;19930;-66
2022/03/22 11:29:12;;;;;;;;;;;17.70;81.70;;;;;;5093563;28;19966;-66
2022/03/22 11:31:42;;;;;;;;;;;17.90;81.20;;;;;;5093000;28;19955;-67
2022/03/22 11:34:12;;;;;;;;;;;18.50;80.00;;;;;;5093948;28;19978;-67
2022/03/22 11:36:44;;;;;;;;;;;19.30;80.50;;;;;;5099630;28;20023;-66
2022/03/22 11:42:15;;;;;;;;;;;20.00;78.20;;;;;;5109051;28;20477;-66
2022/03/22 11:42:25;;;;;;;;;;;20.00;78.70;;;;;;5112487;28;19923;-67
2022/03/22 11:44:59;;;;;;;;;;;20.70;79.50;;;;;;5095595;28;19928;-67
2022/03/22 11:47:37;;;;;;;;;;;20.80;78.00;;;;;;5111950;28;19959;-67
2022/03/22 11:50:04;;;;;;;;;;;20.50;79.40;;;;;;5111065;28;20010;-67
2022/03/22 11:52:43;;;;;;;;;;;20.60;78.70;;;;;;5096780;28;19928;-66
2022/03/22 11:55:22;;;;;;;;;;;20.40;78.50;;;;;;5077148;28;19955;-66
2022/03/22 11:57:50;;;;;;;;;;;19.90;77.50;;;;;;5103760;28;19930;-67
2022/03/22 12:00:21;;;;;;;;;;;19.70;78.50;;;;;;5110534;28;20010;-67
2022/03/22 12:02:53;;;;;;;;;;;19.90;79.60;;;;;;5096489;28;19931;-66
2022/03/22 12:05:20;;;;;;;;;;;19.80;78.90;;;;;;5103691;28;19969;-67
2022/03/22 12:07:47;;;;;;;;;;;19.40;77.90;;;;;;5093629;28;19924;-67
2022/03/22 12:10:15;;;;;;;;;;;19.40;79.30;;;;;;5109046;28;19930;-66
2022/03/22 12:12:49;;;;;;;;;;;19.60;78.10;;;;;;5109835;28;19936;-67
2022/03/22 12:15:24;;;;;;;;;;;19.90;78.20;;;;;;5102810;28;19986;-66
2022/03/22 12:17:51;;;;;;;;;;;19.60;77.10;;;;;;5110708;28;19927;-66
2022/03/22 12:20:19;;;;;;;;;;;19.60;77.10;;;;;;5097088;28;19924;-67
2022/03/22 12:22:48;;;;;;;;;;;19.30;77.70;;;;;;5092103;28;19964;-66
2022/03/22 12:25:17;;;;;;;;;;;18.80;77.40;;;;;;5101086;28;19930;-66
2022/03/22 12:27:54;;;;;;;;;;;18.80;77.10;;;;;;5111214;28;19958;-67
2022/03/22 12:30:22;;;;;;;;;;;19.40;77.10;;;;;;5106663;28;19979;-67
2022/03/22 12:32:53;;;;;;;;;;;19.60;77.10;;;;;;5095124;28;20015;-66
2022/03/22 12:35:20;;;;;;;;;;;19.60;77.70;;;;;;5092952;28;19924;-67
2022/03/22 12:37:48;;;;;;;;;;;19.50;77.00;;;;;;5094148;28;20003;-66
2022/03/22 12:40:16;;;;;;;;;;;19.30;75.90;;;;;;5090247;28;19982;-67
2022/03/22 12:42:43;;;;;;;;;;;19.30;76.60;;;;;;5108942;28;19934;-67
2022/03/22 12:45:10;;;;;;;;;;;19.40;77.10;;;;;;5112564;28;20086;-66
2022/03/22 12:47:38;;;;;;;;;;;19.50;76.40;;;;;;5110653;28;20016;-67
2022/03/22 12:50:09;;;;;;;;;;;19.30;76.60;;;;;;5101301;28;19924;-66
2022/03/22 12:52:39;;;;;;;;;;;19.70;76.10;;;;;;5091446;28;19928;-67
2022/03/22 12:55:10;;;;;;;;;;;19.80;76.00;;;;;;5106683;28;19932;-67
2022/03/22 12:57:40;;;;;;;;;;;19.70;76.10;;;;;;5104115;28;19931;-67
2022/03/22 13:00:08;;;;;;;;;;;19.70;76.50;;;;;;5093025;28;19943;-66
2022/03/22 13:02:38;;;;;;;;;;;19.70;75.60;;;;;;5091287;28;19961;-66
2022/03/22 13:05:06;;;;;;;;;;;19.70;75.70;;;;;;5107071;28;19984;-67
2022/03/22 13:07:36;;;;;;;;;;;20.10;75.00;;;;;;5091523;28;19968;-66
2022/03/22 13:12:48;;;;;;;;;;;20.00;74.40;;;;;;5099588;28;19935;-66
2022/03/22 13:15:16;;;;;;;;;;;19.60;75.00;;;;;;5103585;28;19965;-66
2022/03/22 13:17:45;;;;;;;;;;;19.70;74.70;;;;;;5100788;28;19930;-66
2022/03/22 13:20:21;;;;;;;;;;;19.70;74.30;;;;;;5107920;28;19947;-67
2022/03/22 13:22:53;;;;;;;;;;;20.00;74.60;;;;;;5089653;28;19975;-66
2022/03/22 13:25:39;;;;;;;;;;;20.60;74.80;;;;;;5086202;28;19928;-66
2022/03/22 13:28:07;;;;;;;;;;;20.90;74.00;;;;;;5090876;28;19928;-66
2022/03/22 13:30:35;;;;;;;;;;;20.90;73.30;;;;;;5107734;28;19939;-66
2022/03/22 13:33:05;;;;;;;;;;;21.00;72.50;;;;;;5097737;28;19928;-67
2022/03/22 13:35:33;;;;;;;;;;;21.70;74.00;;;;;;5091270;28;19928;-66
2022/03/22 13:38:04;;;;;;;;;;;22.20;73.30;;;;;;5090915;28;20582;-66
2022/03/22 13:40:38;;;;;;;;;;;22.30;72.70;;;;;;5098535;28;19930;-67
2022/03/22 13:43:07;;;;;;;;;;;22.40;72.90;;;;;;5109300;28;20007;-66
2022/03/22 13:45:35;;;;;;;;;;;22.70;72.90;;;;;;5093193;28;19928;-66
2022/03/22 13:48:12;;;;;;;;;;;22.80;72.60;;;;;;5109825;28;19927;-66
2022/03/22 13:50:40;;;;;;;;;;;22.80;71.80;;;;;;5106231;28;19932;-66
2022/03/22 13:53:11;;;;;;;;;;;23.40;72.20;;;;;;5090764;28;20264;-67
2022/03/22 13:56:00;;;;;;;;;;;24.50;71.40;;;;;;5106832;28;19932;-67
2022/03/22 13:58:35;;;;;;;;;;;25.20;71.80;;;;;;5108424;28;20026;-67
2022/03/22 14:01:04;;;;;;;;;;;25.30;69.40;;;;;;5091357;28;19939;-66
2022/03/22 14:03:33;;;;;;;;;;;24.60;69.20;;;;;;5090862;28;19924;-66
2022/03/22 14:06:00;;;;;;;;;;;24.60;70.60;;;;;;5107592;28;19930;-66
2022/03/22 14:08:27;;;;;;;;;;;24.30;68.70;;;;;;5101934;28;19943;-66
2022/03/22 14:10:54;;;;;;;;;;;25.00;69.70;;;;;;5090986;28;19931;-67
2022/03/22 14:13:22;;;;;;;;;;;25.60;68.70;;;;;;5105691;28;20043;-66
2022/03/22 14:15:50;;;;;;;;;;;24.70;68.50;;;;;;5090876;28;20032;-67
2022/03/22 14:18:21;;;;;;;;;;;24.10;68.70;;;;;;5104280;28;19931;-66
2022/03/22 14:20:50;;;;;;;;;;;24.60;69.90;;;;;;5109229;28;19924;-67
2022/03/22 14:23:17;;;;;;;;;;;25.50;68.40;;;;;;5091280;28;19963;-67
2022/03/22 14:25:44;;;;;;;;;;;25.70;68.00;;;;;;5105012;28;19927;-67
2022/03/22 14:28:14;;;;;;;;;;;25.90;68.30;;;;;;5092502;28;19980;-67
2022/03/22 14:30:44;;;;;;;;;;;26.00;68.20;;;;;;5106534;28;19928;-66
2022/03/22 14:33:18;;;;;;;;;;;26.90;67.30;;;;;;5094898;28;19959;-67
2022/03/22 14:35:46;;;;;;;;;;;27.00;66.40;;;;;;5113696;28;20440;-66
2022/03/22 14:38:15;;;;;;;;;;;26.40;66.40;;;;;;5093637;28;19924;-67
2022/03/22 14:40:42;;;;;;;;;;;25.90;66.20;;;;;;5094061;28;19934;-67
2022/03/22 14:43:12;;;;;;;;;;;25.10;66.40;;;;;;5093955;28;19932;-67
2022/03/22 14:45:40;;;;;;;;;;;25.60;67.90;;;;;;5094155;28;19959;-67
2022/03/22 14:48:07;;;;;;;;;;;26.00;67.00;;;;;;5092889;28;19924;-67
2022/03/22 14:50:34;;;;;;;;;;;25.30;66.40;;;;;;5107633;28;19924;-68
2022/03/22 14:55:48;;;;;;;;;;;24.20;67.00;;;;;;5094042;28;19924;-71
2022/03/22 15:01:00;;;;;;;;;;;25.20;66.20;;;;;;5093109;28;19928;-68
2022/03/22 15:03:27;;;;;;;;;;;26.00;66.30;;;;;;5100320;28;20337;-67
2022/03/22 15:06:07;;;;;;;;;;;25.40;66.10;;;;;;5113045;28;19923;-67
2022/03/22 15:08:34;;;;;;;;;;;24.20;66.60;;;;;;5094650;28;20035;-67
2022/03/22 15:11:00;;;;;;;;;;;24.20;67.80;;;;;;5094721;28;20002;-67
2022/03/22 15:13:27;;;;;;;;;;;25.00;67.00;;;;;;5105393;28;19924;-67
2022/03/22 15:15:54;;;;;;;;;;;25.60;66.40;;;;;;5097036;28;19929;-67
2022/03/22 15:18:22;;;;;;;;;;;25.40;65.50;;;;;;5092838;28;19924;-67